Aérodrome :
LOGIN :

S'inscrire | Disclaimer

   EN    FR    IT 

 










Légende :    VFR   VFR Marginal   IFR   IFR Intensif   IFR Très Intensif
Visi : 
Plafond : 
>= 8 km
>= 3000ft
5 à 8 km
1000 à 3000 ft
1500m à 5 km
500 à 1000 ft
800 à 1500m
200 à 500 ft
< 800m
< 200 ft
Symboles :   Orages  Brouillard  Fortes neiges  Fortes précipitations  Vent > 20 kt
SIGMETs :   Divers  Orages  Givrage  Turbulence  Onde Orograph.  Cendres Volcan.







- Altitude de l'aérodrome : 1197 ft
- Code IATA : SPM


ETAD - Spangdahlem Ab

DERNIER METAR :
  • 210756Z AUTO 06006KT 9999 CLR 07/05 A3038 RMK AO2 SLP286 T00680045 $

METARs EXPIRÉS :
  • 210656Z AUTO 00000KT 9999 CLR 04/03 A3037 RMK AO2 SLP286 T00440029 $
  • 210556Z AUTO 07005KT 9999 CLR 04/02 A3037 RMK AO2 SLP284 T00350023 10060 20030 58005 $

TAF TAF ETAD
Valide du 21 à 04h jusqu'au 22 à 10h UTC


210407Z 2104/2210 VRB06KT 9000 BR SKC QNH3034INS
BECMG 2109/2110 10009KT 9999 NSW FEW100 QNH3028INS
BECMG 2206/2207 VRB06KT 9999 BKN035 QNH3028INS TX17/2113Z TN03/2106Z LAST NO AMDS AFT 2104 NEXT 2109
Pas de NOTAMs connus pour ce terrain.



MET'MAP, la Météo Aéronautique d'un coup d'oeil ! - Copyright ORBIFLY Décembre 2007 - Disclaimer

ORBIFLY MET'MAP TEAM :

Programmation & Développement : Alexandra Zaïnal
Conception & Développement : Baudouin d'Aumeries
Co-Programmation & Développement : Marc-Olivier Méhu
Soutien technique & logistique : Manuel Goepfert

Contact : metmap@orbifly.com




SOURCES & CREDITS :

   NOAA